Time;durP1;ratioP1;P1;durP2;ratioP2;P2;SDS_P1;SDS_P2;PMS_P1;PMS_P2;Temp;Humidity;BMP_temperature;BMP_pressure;BME280_temperature;BME280_humidity;BME280_pressure;Samples;Min_cycle;Max_cycle;Signal;HPM_P1;HPM_P2
2022/10/10 00:00:07;;;;;;;4.57;3.30;;;8.20;99.90;;;;;;5096116;28;20036;-78
2022/10/10 00:02:32;;;;;;;4.93;3.40;;;8.20;99.90;;;;;;5093436;28;20111;-78
2022/10/10 00:04:58;;;;;;;5.68;3.40;;;8.20;99.90;;;;;;5093509;28;20119;-79
2022/10/10 00:07:23;;;;;;;4.95;3.50;;;8.20;99.90;;;;;;5093488;28;20064;-79
2022/10/10 00:09:49;;;;;;;6.38;3.28;;;8.20;99.90;;;;;;5093664;28;20047;-78
2022/10/10 00:12:14;;;;;;;5.32;3.47;;;8.10;99.90;;;;;;5094384;28;20099;-80
2022/10/10 00:14:40;;;;;;;7.38;3.58;;;8.10;99.90;;;;;;5093199;28;20040;-79
2022/10/10 00:17:05;;;;;;;5.18;3.50;;;8.10;99.90;;;;;;5076409;28;20119;-80
2022/10/10 00:19:31;;;;;;;5.90;3.10;;;8.10;99.90;;;;;;5093594;28;20036;-79
2022/10/10 00:21:56;;;;;;;5.55;3.45;;;8.00;99.90;;;;;;5093034;28;20074;-79
2022/10/10 00:24:22;;;;;;;5.78;3.60;;;8.00;99.90;;;;;;5093136;28;20417;-80
2022/10/10 00:26:47;;;;;;;6.72;3.53;;;8.00;99.90;;;;;;5092897;28;20039;-78
2022/10/10 00:29:13;;;;;;;5.90;3.63;;;8.00;99.90;;;;;;5093263;28;20580;-79
2022/10/10 00:31:38;;;;;;;5.65;3.45;;;8.00;99.90;;;;;;5076000;28;20036;-80
2022/10/10 00:34:04;;;;;;;5.82;3.55;;;8.00;99.90;;;;;;5092961;28;20374;-79
2022/10/10 00:36:29;;;;;;;6.68;3.80;;;7.90;99.90;;;;;;5076083;28;20039;-79
2022/10/10 00:38:55;;;;;;;5.65;3.75;;;8.00;99.90;;;;;;5092808;28;20412;-80
2022/10/10 00:41:21;;;;;;;5.53;3.67;;;8.00;99.90;;;;;;5075906;28;20545;-79
2022/10/10 00:44:13;;;;;;;7.78;3.70;;;7.90;99.90;;;;;;5092741;28;20051;-79
2022/10/10 00:46:39;;;;;;;6.72;3.67;;;7.90;99.90;;;;;;5092861;28;20088;-79
2022/10/10 00:49:11;;;;;;;5.70;3.42;;;7.90;99.90;;;;;;5092291;28;20036;-79
2022/10/10 00:51:38;;;;;;;4.88;3.28;;;7.90;99.90;;;;;;5092619;28;20413;-78
2022/10/10 00:54:08;;;;;;;6.32;3.80;;;7.80;99.90;;;;;;5092274;28;20040;-78
2022/10/10 00:56:47;;;;;;;7.18;3.55;;;7.80;99.90;;;;;;5095023;28;20053;-79
2022/10/10 00:59:13;;;;;;;5.78;3.33;;;7.80;99.90;;;;;;5102598;28;20047;-79
2022/10/10 01:01:40;;;;;;;6.80;3.60;;;7.80;99.90;;;;;;5075338;28;20040;-79
2022/10/10 01:04:26;;;;;;;4.38;3.35;;;7.80;99.90;;;;;;5075508;28;20044;-79
2022/10/10 01:06:51;;;;;;;5.88;3.28;;;7.70;99.90;;;;;;5092381;28;20046;-79
2022/10/10 01:09:17;;;;;;;4.95;3.28;;;7.70;99.90;;;;;;5092004;28;20032;-78
2022/10/10 01:11:59;;;;;;;6.00;3.95;;;7.70;99.90;;;;;;5091925;28;20044;-78
2022/10/10 01:14:38;;;;;;;7.57;3.78;;;7.70;99.90;;;;;;5091996;28;20036;-79
2022/10/10 01:17:23;;;;;;;9.00;3.60;;;7.70;99.90;;;;;;5075394;28;20036;-79
2022/10/10 01:20:22;;;;;;;5.05;3.40;;;7.80;99.90;;;;;;5092226;28;20578;-79
2022/10/10 01:23:09;;;;;;;5.85;3.50;;;7.70;99.90;;;;;;5092068;28;20032;-79
2022/10/10 01:26:12;;;;;;;7.22;3.55;;;7.70;99.90;;;;;;5092101;28;20047;-79
2022/10/10 01:28:51;;;;;;;5.78;3.55;;;7.70;99.90;;;;;;5074800;28;20047;-78
2022/10/10 01:31:21;;;;;;;5.30;3.50;;;7.70;99.90;;;;;;5092089;28;20040;-79
2022/10/10 01:34:16;;;;;;;6.18;3.50;;;7.70;99.90;;;;;;5091729;28;20050;-79
2022/10/10 01:37:08;;;;;;;5.22;3.72;;;7.60;99.90;;;;;;5092083;28;20118;-78
2022/10/10 01:40:13;;;;;;;4.38;3.33;;;7.60;99.90;;;;;;5091624;28;20024;-78
2022/10/10 01:42:53;;;;;;;4.57;3.40;;;7.60;99.90;;;;;;5091348;28;20032;-79
2022/10/10 01:45:19;;;;;;;7.68;3.75;;;7.50;99.90;;;;;;5074785;28;20043;-79
2022/10/10 01:47:46;;;;;;;7.03;3.80;;;7.50;99.90;;;;;;5074804;28;20149;-78
2022/10/10 01:50:17;;;;;;;7.28;4.05;;;7.50;99.90;;;;;;5091321;28;20048;-78
2022/10/10 01:53:20;;;;;;;7.32;4.13;;;7.50;99.90;;;;;;5091314;28;20501;-79
2022/10/10 01:55:51;;;;;;;7.85;3.95;;;7.50;99.90;;;;;;5083208;28;20082;-79
2022/10/10 01:58:59;;;;;;;5.38;3.88;;;7.50;99.90;;;;;;5089072;28;20043;-79
2022/10/10 02:01:27;;;;;;;6.13;3.60;;;7.40;99.90;;;;;;5090511;28;20036;-79
2022/10/10 02:04:07;;;;;;;5.75;4.05;;;7.40;99.90;;;;;;5091129;28;20040;-78
2022/10/10 02:06:40;;;;;;;12.77;4.20;;;7.50;99.90;;;;;;5074409;28;20047;-79
2022/10/10 02:09:12;;;;;;;5.30;3.72;;;7.50;99.90;;;;;;5075017;28;20048;-79
2022/10/10 02:11:39;;;;;;;5.45;4.05;;;7.50;99.90;;;;;;5090839;28;20046;-80
2022/10/10 02:14:29;;;;;;;5.53;4.15;;;7.50;99.90;;;;;;5091354;28;20040;-78
2022/10/10 02:16:58;;;;;;;5.18;4.15;;;7.50;99.90;;;;;;5090969;28;20074;-79
2022/10/10 02:19:25;;;;;;;6.55;4.40;;;7.50;99.90;;;;;;5093627;28;20408;-79
2022/10/10 02:21:53;;;;;;;6.93;4.28;;;7.50;99.90;;;;;;5096362;28;20044;-79
2022/10/10 02:24:21;;;;;;;5.60;4.22;;;7.50;99.90;;;;;;5091304;28;20044;-79
2022/10/10 02:26:56;;;;;;;6.50;4.50;;;7.60;99.90;;;;;;5091579;28;20102;-79
2022/10/10 02:29:27;;;;;;;8.68;4.20;;;7.50;99.90;;;;;;5074478;28;20047;-79
2022/10/10 02:31:55;;;;;;;6.68;4.20;;;7.50;99.90;;;;;;5091034;28;20055;-79
2022/10/10 02:34:28;;;;;;;6.70;4.88;;;7.60;99.90;;;;;;5091024;28;20040;-78
2022/10/10 02:36:58;;;;;;;5.93;4.30;;;7.60;99.90;;;;;;5091293;28;20032;-79
2022/10/10 02:39:28;;;;;;;7.15;4.35;;;7.60;99.90;;;;;;5090797;28;20040;-78
2022/10/10 02:41:54;;;;;;;5.93;4.20;;;7.60;99.90;;;;;;5090736;28;20114;-80
2022/10/10 02:44:21;;;;;;;6.63;4.32;;;7.60;99.90;;;;;;5090875;28;20096;-79
2022/10/10 02:46:46;;;;;;;7.68;4.45;;;7.60;99.90;;;;;;5091103;28;20036;-78
2022/10/10 02:49:12;;;;;;;7.97;4.53;;;7.60;99.90;;;;;;5090826;28;20063;-78
2022/10/10 02:51:38;;;;;;;7.53;4.47;;;7.60;99.90;;;;;;5090761;28;20125;-79
2022/10/10 02:54:05;;;;;;;8.43;4.40;;;7.60;99.90;;;;;;5091285;28;20040;-79
2022/10/10 02:56:31;;;;;;;7.75;4.68;;;7.60;99.90;;;;;;5093076;28;20032;-79
2022/10/10 02:58:56;;;;;;;11.20;5.03;;;7.50;99.90;;;;;;5103325;28;20127;-78
2022/10/10 03:01:22;;;;;;;7.75;4.97;;;7.60;99.90;;;;;;5090630;28;20132;-80
2022/10/10 03:03:48;;;;;;;7.88;5.03;;;7.60;99.90;;;;;;5090582;28;20028;-79
2022/10/10 03:06:14;;;;;;;7.38;4.82;;;7.60;99.90;;;;;;5091004;28;20131;-79
2022/10/10 03:08:39;;;;;;;8.63;5.10;;;7.50;99.90;;;;;;5094632;28;20047;-79
2022/10/10 03:11:05;;;;;;;7.70;5.32;;;7.50;99.90;;;;;;5100479;28;20039;-79
2022/10/10 03:13:31;;;;;;;6.88;4.80;;;7.60;99.90;;;;;;5107798;28;20048;-79
2022/10/10 03:15:57;;;;;;;7.85;5.15;;;7.50;99.90;;;;;;5094644;28;20040;-78
2022/10/10 03:18:23;;;;;;;8.18;5.07;;;7.50;99.90;;;;;;5094873;28;20038;-79
2022/10/10 03:20:54;;;;;;;7.28;4.88;;;7.50;99.90;;;;;;5094530;28;20028;-79
2022/10/10 03:23:21;;;;;;;6.75;4.68;;;7.60;99.90;;;;;;5094275;28;20040;-79
2022/10/10 03:25:47;;;;;;;8.57;5.30;;;7.60;99.90;;;;;;5095057;28;20105;-79
2022/10/10 03:28:12;;;;;;;8.60;5.05;;;7.50;99.90;;;;;;5077526;28;20036;-80
2022/10/10 03:30:38;;;;;;;7.68;5.03;;;7.60;99.90;;;;;;5094411;28;20097;-79
2022/10/10 03:33:05;;;;;;;7.63;4.97;;;7.60;99.90;;;;;;5094188;28;20035;-80
2022/10/10 03:35:31;;;;;;;10.85;5.53;;;7.50;99.90;;;;;;5077437;28;20031;-79
2022/10/10 03:37:57;;;;;;;10.50;5.43;;;7.50;99.90;;;;;;5094379;28;20570;-79
2022/10/10 03:40:23;;;;;;;8.15;5.25;;;7.50;99.90;;;;;;5077219;28;20092;-78
2022/10/10 03:42:48;;;;;;;9.73;5.38;;;7.50;99.90;;;;;;5093280;28;20036;-80
2022/10/10 03:45:14;;;;;;;8.25;5.72;;;7.50;99.90;;;;;;5093863;28;20047;-79
2022/10/10 03:47:39;;;;;;;9.48;5.32;;;7.60;99.90;;;;;;5094026;28;20043;-79
2022/10/10 03:50:05;;;;;;;8.10;5.38;;;7.50;99.90;;;;;;5093658;28;20039;-79
2022/10/10 03:52:31;;;;;;;7.50;5.47;;;7.60;99.90;;;;;;5093130;28;20044;-78
2022/10/10 03:54:57;;;;;;;11.77;6.00;;;7.60;99.90;;;;;;5093599;28;20036;-79
2022/10/10 03:57:22;;;;;;;7.68;5.50;;;7.60;99.90;;;;;;5102741;28;20035;-79
2022/10/10 03:59:48;;;;;;;7.70;5.30;;;7.60;99.90;;;;;;5081859;28;20058;-78
2022/10/10 04:02:13;;;;;;;9.20;6.10;;;7.60;99.90;;;;;;5093263;28;20036;-79
2022/10/10 04:04:39;;;;;;;8.52;5.32;;;7.60;99.90;;;;;;5093523;28;20063;-79
2022/10/10 04:07:04;;;;;;;8.45;5.70;;;7.50;99.90;;;;;;5093742;28;20387;-78
2022/10/10 04:09:30;;;;;;;7.55;5.28;;;7.50;99.90;;;;;;5093343;28;20040;-78
2022/10/10 04:11:56;;;;;;;8.32;5.65;;;7.50;99.90;;;;;;5076273;28;20051;-79
2022/10/10 04:14:21;;;;;;;9.30;6.07;;;7.50;99.90;;;;;;5093195;28;20417;-79
2022/10/10 04:16:47;;;;;;;8.23;5.57;;;7.40;99.90;;;;;;5092923;28;20516;-78
2022/10/10 04:19:13;;;;;;;7.75;5.55;;;7.40;99.90;;;;;;5076743;28;20091;-79
2022/10/10 04:21:39;;;;;;;7.75;5.47;;;7.40;99.90;;;;;;5087964;28;20516;-78
2022/10/10 04:24:05;;;;;;;8.70;5.90;;;7.40;99.90;;;;;;5094637;28;20125;-79
2022/10/10 04:26:30;;;;;;;6.82;5.80;;;7.40;99.90;;;;;;5093128;28;20050;-79
2022/10/10 04:28:56;;;;;;;10.15;5.35;;;7.30;99.90;;;;;;5093153;28;20120;-78
2022/10/10 04:31:22;;;;;;;8.55;5.45;;;7.30;99.90;;;;;;5092893;28;20054;-78
2022/10/10 04:33:48;;;;;;;10.02;6.32;;;7.30;99.90;;;;;;5092708;28;20098;-78
2022/10/10 04:36:13;;;;;;;8.18;6.07;;;7.30;99.90;;;;;;5092801;28;20043;-79
2022/10/10 04:38:39;;;;;;;7.95;6.03;;;7.20;99.90;;;;;;5076623;28;20043;-78
2022/10/10 04:41:04;;;;;;;10.68;6.10;;;7.20;99.90;;;;;;5092368;28;20032;-78
2022/10/10 04:43:30;;;;;;;7.40;5.78;;;7.20;99.90;;;;;;5092652;28;20577;-79
2022/10/10 04:45:57;;;;;;;11.68;6.00;;;7.10;99.90;;;;;;5075756;28;20467;-78
2022/10/10 04:48:22;;;;;;;8.50;5.72;;;7.10;99.90;;;;;;5092730;28;20401;-78
2022/10/10 04:50:56;;;;;;;9.20;5.95;;;7.10;99.90;;;;;;5092540;28;20039;-78
2022/10/10 04:53:23;;;;;;;9.02;6.00;;;7.00;99.90;;;;;;5092478;28;20514;-78
2022/10/10 04:55:49;;;;;;;8.40;5.95;;;7.00;99.90;;;;;;5092278;28;20077;-78
2022/10/10 04:58:14;;;;;;;9.05;6.13;;;6.90;99.90;;;;;;5106831;28;20044;-78
2022/10/10 05:00:40;;;;;;;10.88;6.47;;;6.90;99.90;;;;;;5075672;28;20047;-78
2022/10/10 05:03:06;;;;;;;9.20;5.85;;;6.90;99.90;;;;;;5092376;28;20036;-79
2022/10/10 05:05:32;;;;;;;7.72;5.72;;;6.90;99.90;;;;;;5092603;28;20039;-78
2022/10/10 05:07:58;;;;;;;7.63;5.85;;;6.90;99.90;;;;;;5093127;28;20437;-78
2022/10/10 05:10:24;;;;;;;8.73;6.00;;;6.80;99.90;;;;;;5092052;28;20039;-79
2022/10/10 05:12:50;;;;;;;12.52;6.60;;;6.90;99.90;;;;;;5091809;28;20086;-78
2022/10/10 05:15:16;;;;;;;8.23;6.35;;;6.90;99.90;;;;;;5092019;28;20421;-79
2022/10/10 05:17:42;;;;;;;8.98;6.43;;;6.90;99.90;;;;;;5092061;28;20112;-79
2022/10/10 05:20:08;;;;;;;9.93;6.75;;;6.90;99.90;;;;;;5091861;28;20122;-79
2022/10/10 05:22:34;;;;;;;7.93;5.90;;;6.90;99.90;;;;;;5074773;28;20028;-78
2022/10/10 05:25:00;;;;;;;10.05;6.47;;;6.80;99.90;;;;;;5074975;28;20042;-79
2022/10/10 05:27:26;;;;;;;9.20;6.78;;;6.80;99.90;;;;;;5074995;28;20135;-79
2022/10/10 05:29:52;;;;;;;9.07;6.43;;;6.80;99.90;;;;;;5091888;28;20446;-79
2022/10/10 05:32:17;;;;;;;9.07;6.60;;;6.80;99.90;;;;;;5091990;28;20036;-79
2022/10/10 05:34:43;;;;;;;10.85;6.65;;;6.80;99.90;;;;;;5091458;28;20040;-79
2022/10/10 05:37:08;;;;;;;11.30;6.63;;;6.80;99.90;;;;;;5090872;28;20428;-78
2022/10/10 05:39:34;;;;;;;8.13;6.07;;;6.80;99.90;;;;;;5074939;28;20036;-79
2022/10/10 05:42:00;;;;;;;10.07;6.97;;;6.80;99.90;;;;;;5091341;28;20047;-77
2022/10/10 05:44:26;;;;;;;9.20;6.53;;;6.80;99.90;;;;;;5091127;28;20299;-78
2022/10/10 05:46:51;;;;;;;10.27;6.25;;;6.80;99.90;;;;;;5074497;28;20557;-78
2022/10/10 05:49:17;;;;;;;9.93;6.53;;;6.80;99.90;;;;;;5074708;28;20132;-78
2022/10/10 05:51:42;;;;;;;11.77;6.65;;;6.80;99.90;;;;;;5092455;28;20032;-79
2022/10/10 05:54:08;;;;;;;12.00;7.07;;;6.90;99.90;;;;;;5092126;28;20044;-78
2022/10/10 05:56:34;;;;;;;9.57;7.35;;;6.90;99.90;;;;;;5093619;28;20520;-78
2022/10/10 05:58:59;;;;;;;10.13;7.00;;;6.90;99.90;;;;;;5104009;28;20033;-79
2022/10/10 06:01:25;;;;;;;9.85;7.05;;;7.00;99.90;;;;;;5091041;28;20050;-77
2022/10/10 06:03:54;;;;;;;9.55;6.95;;;7.00;99.90;;;;;;5091396;28;20118;-78
2022/10/10 06:06:21;;;;;;;10.27;6.88;;;7.10;99.90;;;;;;5091653;28;20110;-78
2022/10/10 06:08:46;;;;;;;10.05;6.65;;;7.10;99.90;;;;;;5091082;28;20100;-77
2022/10/10 06:11:12;;;;;;;9.38;6.57;;;7.10;99.90;;;;;;5091053;28;20135;-78
2022/10/10 06:13:37;;;;;;;9.60;7.15;;;7.10;99.90;;;;;;5090890;28;20126;-79
2022/10/10 06:16:03;;;;;;;8.68;7.07;;;7.20;99.90;;;;;;5091057;28;20043;-79
2022/10/10 06:18:29;;;;;;;10.30;6.90;;;7.20;99.90;;;;;;5073977;28;20042;-77
2022/10/10 06:20:59;;;;;;;11.88;7.60;;;7.20;99.90;;;;;;5091805;28;20032;-79
2022/10/10 06:23:25;;;;;;;12.00;6.90;;;7.20;99.90;;;;;;5096546;28;20036;-78
2022/10/10 06:25:51;;;;;;;11.00;7.75;;;7.20;99.90;;;;;;5074273;28;20032;-78
2022/10/10 06:28:16;;;;;;;10.30;6.80;;;7.30;99.90;;;;;;5091201;28;20048;-79
2022/10/10 06:30:43;;;;;;;9.25;6.90;;;7.30;99.90;;;;;;5090792;28;20102;-79
2022/10/10 06:33:10;;;;;;;10.90;7.72;;;7.30;99.90;;;;;;5091487;28;20591;-79
2022/10/10 06:35:41;;;;;;;9.40;6.70;;;7.30;99.90;;;;;;5091419;28;20404;-79
2022/10/10 06:38:07;;;;;;;10.85;6.95;;;7.40;99.90;;;;;;5091203;28;20048;-78
2022/10/10 06:40:32;;;;;;;11.02;7.45;;;7.40;99.90;;;;;;5091199;28;20040;-79
2022/10/10 06:42:58;;;;;;;10.02;6.93;;;7.50;99.90;;;;;;5091102;28;20028;-78
2022/10/10 06:45:24;;;;;;;10.30;6.68;;;7.50;99.90;;;;;;5091007;28;20502;-78
2022/10/10 06:47:50;;;;;;;12.05;7.88;;;7.60;99.90;;;;;;5075881;28;20028;-79
2022/10/10 06:50:15;;;;;;;10.40;7.30;;;7.70;99.90;;;;;;5094896;28;20458;-79
2022/10/10 06:52:41;;;;;;;9.57;7.22;;;7.80;99.90;;;;;;5094528;28;20119;-78
2022/10/10 06:55:07;;;;;;;13.02;7.63;;;7.80;99.90;;;;;;5094695;28;20040;-78
2022/10/10 06:57:33;;;;;;;9.93;7.10;;;7.90;99.90;;;;;;5105647;28;20043;-78
2022/10/10 06:59:58;;;;;;;13.70;8.25;;;8.00;99.90;;;;;;5098555;28;20039;-79
2022/10/10 07:02:24;;;;;;;10.23;7.38;;;8.10;99.90;;;;;;5077774;28;20043;-78
2022/10/10 07:04:50;;;;;;;10.70;7.40;;;8.10;99.90;;;;;;5094371;28;20093;-79
2022/10/10 07:07:15;;;;;;;10.02;7.00;;;8.20;99.90;;;;;;5095795;28;20063;-79
2022/10/10 07:09:41;;;;;;;10.45;7.22;;;8.20;99.90;;;;;;5077688;28;20044;-78
2022/10/10 07:12:07;;;;;;;10.73;7.55;;;8.30;99.90;;;;;;5094505;28;20040;-78
2022/10/10 07:14:32;;;;;;;10.18;7.88;;;8.30;99.90;;;;;;5094517;28;20036;-79
2022/10/10 07:16:58;;;;;;;15.20;7.68;;;8.40;99.90;;;;;;5094803;28;20044;-79
2022/10/10 07:19:23;;;;;;;9.57;7.28;;;8.50;99.90;;;;;;5094830;28;20040;-79
2022/10/10 07:21:50;;;;;;;8.98;7.40;;;8.60;99.90;;;;;;5095255;28;20039;-79
2022/10/10 07:24:15;;;;;;;11.90;7.55;;;8.60;99.90;;;;;;5094996;28;20094;-79
2022/10/10 07:26:41;;;;;;;11.88;7.22;;;8.70;99.90;;;;;;5094961;28;20527;-79
2022/10/10 07:29:07;;;;;;;10.50;7.32;;;8.80;99.90;;;;;;5077605;28;20036;-79
2022/10/10 07:31:32;;;;;;;10.60;7.13;;;8.80;99.90;;;;;;5077699;28;20040;-80
2022/10/10 07:33:58;;;;;;;12.82;7.72;;;8.90;99.90;;;;;;5094229;28;20036;-80
2022/10/10 07:36:23;;;;;;;10.10;6.78;;;8.90;99.90;;;;;;5094393;28;20032;-79
2022/10/10 07:38:53;;;;;;;10.90;7.05;;;9.00;99.90;;;;;;5095011;28;20044;-79
2022/10/10 07:41:19;;;;;;;10.32;7.18;;;9.00;99.90;;;;;;5096105;28;20044;-79
2022/10/10 07:43:45;;;;;;;10.00;7.10;;;8.90;99.90;;;;;;5078307;28;20462;-79
2022/10/10 07:46:17;;;;;;;10.48;7.15;;;9.00;99.90;;;;;;5095623;28;20047;-79
2022/10/10 07:48:42;;;;;;;10.57;7.10;;;9.00;99.90;;;;;;5096049;28;20535;-79
2022/10/10 07:51:08;;;;;;;12.63;7.30;;;9.20;99.90;;;;;;5094644;28;20115;-78
2022/10/10 07:53:34;;;;;;;12.60;7.25;;;9.40;99.90;;;;;;5094882;28;20047;-80
2022/10/10 07:56:06;;;;;;;10.48;6.97;;;9.50;99.90;;;;;;5093858;28;20100;-79
2022/10/10 07:58:33;;;;;;;10.63;7.60;;;9.70;99.90;;;;;;5108201;28;20032;-81
2022/10/10 08:01:07;;;;;;;9.88;7.32;;;9.80;99.90;;;;;;5094062;28;20453;-80
2022/10/10 08:03:32;;;;;;;10.93;7.38;;;10.00;99.90;;;;;;5094014;28;20035;-80
2022/10/10 08:06:01;;;;;;;11.20;7.20;;;10.00;99.90;;;;;;5094071;28;20104;-80
2022/10/10 08:08:26;;;;;;;10.85;6.68;;;10.10;99.90;;;;;;5094041;28;20415;-78
2022/10/10 08:10:52;;;;;;;8.20;6.75;;;10.20;99.90;;;;;;5093743;28;20032;-78
2022/10/10 08:13:17;;;;;;;10.20;7.13;;;10.30;99.90;;;;;;5093912;28;20051;-78
2022/10/10 08:15:43;;;;;;;9.10;6.70;;;10.40;99.90;;;;;;5094452;28;20027;-80
2022/10/10 08:18:08;;;;;;;9.52;7.32;;;10.40;99.90;;;;;;5076829;28;20058;-80
2022/10/10 08:20:34;;;;;;;10.57;7.20;;;10.60;99.90;;;;;;5076669;28;20430;-80
2022/10/10 08:22:59;;;;;;;9.63;6.90;;;10.80;99.90;;;;;;5094089;28;20036;-80
2022/10/10 08:25:25;;;;;;;9.18;6.68;;;10.90;99.90;;;;;;5093325;28;20044;-80
2022/10/10 08:27:50;;;;;;;8.70;6.70;;;11.10;99.90;;;;;;5093561;28;20032;-81
2022/10/10 08:30:16;;;;;;;11.48;7.63;;;11.20;99.90;;;;;;5093533;28;20501;-81
2022/10/10 08:32:42;;;;;;;8.98;6.70;;;11.30;99.90;;;;;;5092822;28;20169;-80
2022/10/10 08:35:07;;;;;;;9.82;6.97;;;11.40;99.90;;;;;;5092797;28;20044;-80
2022/10/10 08:37:33;;;;;;;8.98;6.47;;;11.40;99.90;;;;;;5093412;28;20532;-80
2022/10/10 08:39:58;;;;;;;9.05;6.75;;;11.50;99.90;;;;;;5092976;28;20040;-81
2022/10/10 08:42:35;;;;;;;11.43;7.30;;;11.60;99.90;;;;;;5093032;28;20119;-81
2022/10/10 08:45:10;;;;;;;11.75;7.03;;;11.70;99.90;;;;;;5093290;28;20035;-81
2022/10/10 08:47:43;;;;;;;11.30;6.80;;;11.80;99.90;;;;;;5093088;28;20566;-81
2022/10/10 08:50:30;;;;;;;13.60;6.97;;;11.90;99.90;;;;;;5093183;28;20044;-80
2022/10/10 08:53:24;;;;;;;11.23;6.82;;;11.90;99.90;;;;;;5076056;28;20043;-81
2022/10/10 08:55:52;;;;;;;8.43;6.70;;;12.00;99.90;;;;;;5084601;28;20201;-80
2022/10/10 08:58:22;;;;;;;9.18;6.60;;;12.00;99.90;;;;;;5107903;28;20043;-81
2022/10/10 09:00:55;;;;;;;10.23;6.93;;;12.10;99.90;;;;;;5076580;28;20405;-80
2022/10/10 09:03:21;;;;;;;9.85;6.68;;;12.10;99.90;;;;;;5092883;28;20048;-81
2022/10/10 09:06:06;;;;;;;14.48;7.47;;;12.20;99.90;;;;;;5093027;28;20823;-82
2022/10/10 09:08:53;;;;;;;10.65;7.40;;;12.20;99.90;;;;;;5068840;28;20505;-80
2022/10/10 09:11:43;;;;;;;11.02;7.00;;;12.30;99.90;;;;;;5092092;28;20040;-81
2022/10/10 09:14:18;;;;;;;9.73;7.13;;;12.30;99.90;;;;;;5092003;28;20044;-81
2022/10/10 09:17:12;;;;;;;10.02;7.03;;;12.40;99.90;;;;;;5092945;28;20036;-80
2022/10/10 09:19:51;;;;;;;10.32;6.72;;;12.50;99.90;;;;;;5093414;28;20047;-81
2022/10/10 09:22:24;;;;;;;10.05;6.93;;;12.50;99.90;;;;;;5075903;28;20111;-81
2022/10/10 09:25:14;;;;;;;13.30;7.50;;;12.50;99.90;;;;;;5092013;28;20044;-81
2022/10/10 09:27:43;;;;;;;10.77;7.40;;;12.60;99.90;;;;;;5092745;28;20068;-82
2022/10/10 09:30:17;;;;;;;10.25;6.65;;;12.60;99.90;;;;;;5092920;28;20043;-81
2022/10/10 09:33:00;;;;;;;8.35;6.80;;;12.60;99.90;;;;;;5092206;28;20078;-85
2022/10/10 09:35:29;;;;;;;11.07;6.75;;;12.60;99.90;;;;;;5092700;28;20562;-81
2022/10/10 09:38:34;;;;;;;12.23;6.85;;;12.50;99.90;;;;;;5092066;28;20106;-81
2022/10/10 09:41:13;;;;;;;10.70;7.10;;;12.60;99.90;;;;;;5106479;28;20036;-81
2022/10/10 09:43:40;;;;;;;11.20;7.20;;;12.60;99.90;;;;;;5092692;28;20563;-81
2022/10/10 09:46:06;;;;;;;13.30;7.35;;;12.60;99.90;;;;;;5092430;28;20532;-81
2022/10/10 09:48:36;;;;;;;9.48;7.50;;;12.70;99.90;;;;;;5092854;28;20036;-81
2022/10/10 09:51:04;;;;;;;11.15;7.10;;;12.70;99.90;;;;;;5092263;28;20044;-81
2022/10/10 09:53:30;;;;;;;14.00;7.72;;;12.70;99.90;;;;;;5091813;28;20042;-81
2022/10/10 09:55:57;;;;;;;13.18;7.75;;;12.80;99.90;;;;;;5092205;28;20040;-81
2022/10/10 09:58:41;;;;;;;11.43;7.40;;;12.90;99.90;;;;;;5106691;28;20032;-81
2022/10/10 10:01:21;;;;;;;;;;;12.90;99.90;;;;;;5093047;28;20119;-81
2022/10/10 10:04:16;;;;;;;9.90;7.05;;;13.00;99.90;;;;;;5075567;28;20404;-82
2022/10/10 10:06:48;;;;;;;13.30;6.97;;;13.00;99.90;;;;;;5086998;28;20052;-81
2022/10/10 10:09:20;;;;;;;13.00;7.40;;;13.10;99.90;;;;;;5091991;28;20097;-80
2022/10/10 10:11:48;;;;;;;13.48;7.55;;;13.20;99.90;;;;;;5075109;28;20047;-81
2022/10/10 10:14:24;;;;;;;12.10;6.85;;;13.40;99.90;;;;;;5091697;28;20113;-81
2022/10/10 10:16:51;;;;;;;12.82;7.55;;;13.60;99.90;;;;;;5075299;28;20389;-82
2022/10/10 10:19:37;;;;;;;12.02;7.50;;;13.80;99.90;;;;;;5092043;28;20519;-81
2022/10/10 10:22:03;;;;;;;9.85;7.15;;;13.90;99.90;;;;;;5093314;28;20459;-81
2022/10/10 10:24:35;;;;;;;11.38;7.10;;;14.00;99.90;;;;;;5105947;28;20044;-82
2022/10/10 10:27:14;;;;;;;11.70;7.35;;;14.10;99.90;;;;;;5081353;28;20035;-81
2022/10/10 10:29:46;;;;;;;14.13;7.47;;;14.10;99.90;;;;;;5098718;28;20048;-81
2022/10/10 10:32:38;;;;;;;10.05;6.85;;;14.00;99.90;;;;;;5098259;28;20493;-81
2022/10/10 10:35:07;;;;;;;11.45;6.97;;;14.10;99.90;;;;;;5098078;28;20509;-82
2022/10/10 10:37:42;;;;;;;11.50;7.43;;;14.20;99.90;;;;;;5097881;28;20040;-82
2022/10/10 10:40:28;;;;;;;12.05;7.65;;;14.30;99.90;;;;;;5098978;28;20047;-80
2022/10/10 10:43:33;;;;;;;8.68;6.82;;;14.40;99.90;;;;;;5112564;28;20513;-80
2022/10/10 10:46:06;;;;;;;;;;;14.60;99.90;;;;;;5095144;28;20085;-81
2022/10/10 10:48:45;;;;;;;10.52;6.60;;;14.80;99.90;;;;;;5098393;28;20046;-82
2022/10/10 10:51:33;;;;;;;10.77;6.40;;;14.90;99.90;;;;;;5098377;28;20425;-83
2022/10/10 10:54:13;;;;;;;12.82;6.78;;;15.00;99.90;;;;;;5098022;28;20042;-81
2022/10/10 10:57:01;;;;;;;10.57;6.57;;;15.10;99.90;;;;;;5083977;28;20084;-81
2022/10/10 10:59:44;;;;;;;12.75;7.05;;;15.30;99.90;;;;;;5106279;28;20532;-82
2022/10/10 11:02:16;;;;;;;9.85;6.85;;;15.30;99.90;;;;;;5099383;28;20043;-81
2022/10/10 11:04:42;;;;;;;8.52;6.55;;;15.30;99.90;;;;;;5098227;28;20078;-83
2022/10/10 11:07:15;;;;;;;8.27;6.45;;;15.30;99.90;;;;;;5098477;28;20072;-81
2022/10/10 11:09:54;;;;;;;8.43;5.78;;;15.10;99.90;;;;;;5098387;28;20044;-81
2022/10/10 11:13:01;;;;;;;10.23;6.13;;;14.90;99.90;;;;;;5098067;28;20084;-81
2022/10/10 11:15:39;;;;;;;10.05;6.85;;;14.80;99.90;;;;;;5081593;28;20070;-82
2022/10/10 11:18:18;;;;;;;10.50;6.03;;;14.60;99.90;;;;;;5098601;28;20070;-82
2022/10/10 11:20:57;;;;;;;9.43;6.55;;;14.50;99.90;;;;;;5098554;28;20032;-81
2022/10/10 11:23:41;;;;;;;10.80;6.78;;;14.30;99.90;;;;;;5098203;28;20040;-82
2022/10/10 11:26:23;;;;;;;10.10;6.22;;;14.30;99.90;;;;;;5097583;28;20081;-82
2022/10/10 11:29:01;;;;;;;10.02;6.50;;;14.10;99.90;;;;;;5097408;28;20505;-82
2022/10/10 11:31:35;;;;;;;11.32;6.78;;;14.10;99.90;;;;;;5097379;28;20035;-82
2022/10/10 11:34:07;;;;;;;12.55;6.63;;;13.90;99.90;;;;;;5096652;28;20455;-82
2022/10/10 11:36:37;;;;;;;9.95;7.20;;;13.90;99.90;;;;;;5094842;28;20040;-82
2022/10/10 11:39:28;;;;;;;12.65;8.52;;;13.80;99.90;;;;;;5094909;28;20122;-82
2022/10/10 11:42:00;;;;;;;13.40;7.20;;;13.70;99.90;;;;;;5097052;28;20042;-82
2022/10/10 11:44:28;;;;;;;12.85;7.80;;;13.60;99.90;;;;;;5093805;28;20543;-82
2022/10/10 11:47:20;;;;;;;11.30;7.40;;;13.60;99.90;;;;;;5093859;28;20097;-83
2022/10/10 11:49:59;;;;;;;14.20;8.13;;;13.60;99.90;;;;;;5094450;28;20109;-82
2022/10/10 11:52:33;;;;;;;12.70;7.60;;;13.70;99.90;;;;;;5077490;28;20070;-81
2022/10/10 11:55:12;;;;;;;12.57;8.60;;;13.70;99.90;;;;;;5094586;28;20044;-80
2022/10/10 11:57:46;;;;;;;15.73;8.10;;;13.70;99.90;;;;;;5105657;28;20046;-82
2022/10/10 12:00:14;;;;;;;11.68;9.38;;;13.80;99.90;;;;;;5095701;28;20028;-81
2022/10/10 12:02:42;;;;;;;16.27;9.30;;;13.90;99.90;;;;;;5077108;28;20032;-82
2022/10/10 12:05:23;;;;;;;15.32;9.63;;;13.90;99.90;;;;;;5093590;28;20043;-82
2022/10/10 12:08:06;;;;;;;17.05;9.23;;;13.90;99.90;;;;;;5095146;28;20047;-81
2022/10/10 12:10:47;;;;;;;15.75;9.40;;;13.90;99.90;;;;;;5094734;28;20039;-81
2022/10/10 12:13:22;;;;;;;20.13;9.40;;;14.00;99.90;;;;;;5095480;28;20443;-80
2022/10/10 12:15:51;;;;;;;15.15;9.15;;;14.00;99.90;;;;;;5094921;28;20036;-81
2022/10/10 12:18:43;;;;;;;12.80;9.75;;;14.00;99.90;;;;;;5093675;28;20516;-81
2022/10/10 12:21:13;;;;;;;14.52;9.50;;;13.90;99.90;;;;;;5094070;28;20466;-81
2022/10/10 12:23:41;;;;;;;13.50;9.55;;;14.00;99.90;;;;;;5077449;28;20036;-81
2022/10/10 12:26:13;;;;;;;13.38;9.07;;;14.00;99.90;;;;;;5076922;28;20081;-82
2022/10/10 12:28:59;;;;;;;16.35;9.48;;;14.00;99.90;;;;;;5093546;28;20107;-82
2022/10/10 12:31:38;;;;;;;14.48;9.40;;;14.00;99.90;;;;;;5094712;28;20043;-82
2022/10/10 12:34:35;;;;;;;19.90;9.57;;;14.00;99.90;;;;;;5093752;28;20032;-82
2022/10/10 12:37:21;;;;;;;14.60;9.43;;;13.90;99.90;;;;;;5094504;28;20502;-81
2022/10/10 12:40:04;;;;;;;17.23;10.23;;;13.90;99.90;;;;;;5094549;28;20075;-81
2022/10/10 12:42:39;;;;;;;17.55;9.40;;;13.90;99.90;;;;;;5093320;28;20414;-81
2022/10/10 12:45:29;;;;;;;16.83;10.27;;;13.80;99.90;;;;;;5092630;28;20105;-80
2022/10/10 12:47:57;;;;;;;14.40;9.85;;;13.80;99.90;;;;;;5092880;28;20036;-81
2022/10/10 12:50:27;;;;;;;15.25;9.57;;;13.70;99.90;;;;;;5075497;28;20044;-81
2022/10/10 12:52:58;;;;;;;18.80;10.10;;;13.70;99.90;;;;;;5075730;28;20104;-81
2022/10/10 12:55:38;;;;;;;15.85;9.57;;;13.70;99.90;;;;;;5093477;28;20043;-81
2022/10/10 12:58:08;;;;;;;16.30;9.73;;;13.70;99.90;;;;;;5107486;28;20032;-81
2022/10/10 13:00:40;;;;;;;15.23;10.02;;;13.70;99.90;;;;;;5093113;28;20031;-82
2022/10/10 13:03:17;;;;;;;16.42;9.73;;;13.70;99.90;;;;;;5092390;28;20040;-81
2022/10/10 13:05:45;;;;;;;14.20;10.05;;;13.60;99.90;;;;;;5093171;28;20063;-81
2022/10/10 13:08:17;;;;;;;14.88;10.82;;;13.60;99.90;;;;;;5093011;28;20460;-81